Time;durP1;ratioP1;P1;durP2;ratioP2;P2;SDS_P1;SDS_P2;PMS_P1;PMS_P2;Temp;Humidity;BMP_temperature;BMP_pressure;BME280_temperature;BME280_humidity;BME280_pressure;Samples;Min_cycle;Max_cycle;Signal;HPM_P1;HPM_P2
2023/01/20 00:01:37;;;;;;;11.47;7.90;;;-0.80;99.90;;;;;;6154974;23;20409;-79
2023/01/20 00:04:06;;;;;;;11.70;7.90;;;-0.90;99.90;;;;;;6154993;23;20416;-80
2023/01/20 00:06:34;;;;;;;10.13;7.73;;;-0.80;99.90;;;;;;6154745;23;20447;-79
2023/01/20 00:09:04;;;;;;;10.00;7.63;;;-0.80;99.90;;;;;;6154063;23;20441;-78
2023/01/20 00:11:32;;;;;;;9.43;7.63;;;-0.90;99.90;;;;;;6157317;23;20889;-80
2023/01/20 00:14:02;;;;;;;12.20;8.07;;;-0.80;99.90;;;;;;6154460;23;20440;-80
2023/01/20 00:16:30;;;;;;;11.80;8.33;;;-0.90;99.90;;;;;;6154688;23;20506;-80
2023/01/20 00:19:00;;;;;;;13.03;7.90;;;-0.90;99.90;;;;;;6154338;23;20434;-80
2023/01/20 00:21:29;;;;;;;11.10;8.20;;;-0.90;99.90;;;;;;6154228;23;20417;-79
2023/01/20 00:23:57;;;;;;;12.23;8.17;;;-0.90;99.90;;;;;;6154153;23;20726;-80
2023/01/20 00:26:25;;;;;;;14.67;8.03;;;-0.80;99.90;;;;;;6154187;23;20968;-80
2023/01/20 00:28:54;;;;;;;10.53;7.90;;;-0.90;99.90;;;;;;6154310;23;20892;-80
2023/01/20 00:31:24;;;;;;;13.13;7.87;;;-0.10;99.90;;;;;;6154460;23;20513;-79
2023/01/20 00:33:55;;;;;;;11.60;7.97;;;-0.90;99.90;;;;;;6151144;23;20467;-80
2023/01/20 00:36:27;;;;;;;12.33;8.60;;;-0.90;99.90;;;;;;6154075;23;20451;-80
2023/01/20 00:38:55;;;;;;;10.43;7.80;;;-0.90;99.90;;;;;;6153202;23;20447;-80
2023/01/20 00:41:23;;;;;;;10.20;7.50;;;-1.00;99.90;;;;;;6154648;23;20770;-78
2023/01/20 00:43:51;;;;;;;9.90;7.70;;;-1.00;99.90;;;;;;6153765;23;20417;-80
2023/01/20 00:46:21;;;;;;;11.13;7.27;;;-1.00;99.90;;;;;;6153845;23;20407;-79
2023/01/20 00:48:49;;;;;;;12.70;7.67;;;-1.00;99.90;;;;;;6154509;23;20409;-80
2023/01/20 00:51:18;;;;;;;10.87;7.57;;;-1.10;99.90;;;;;;6154576;23;20417;-78
2023/01/20 00:53:47;;;;;;;10.60;7.43;;;-1.10;99.90;;;;;;6153257;23;20947;-80
2023/01/20 00:56:15;;;;;;;9.67;6.97;;;-1.10;99.90;;;;;;6154410;23;20448;-80
2023/01/20 00:58:44;;;;;;;10.10;7.13;;;-1.20;99.90;;;;;;6153733;23;20951;-78
2023/01/20 01:01:12;;;;;;;9.00;6.93;;;-1.10;99.90;;;;;;6151824;23;20658;-79
2023/01/20 01:03:41;;;;;;;10.33;7.60;;;-1.10;99.90;;;;;;6149193;23;20798;-79
2023/01/20 01:06:10;;;;;;;10.57;7.37;;;-1.10;99.90;;;;;;6151292;23;20475;-80
2023/01/20 01:08:39;;;;;;;10.70;7.93;;;-1.10;99.90;;;;;;6153305;23;20440;-79
2023/01/20 01:11:09;;;;;;;10.70;7.50;;;-1.20;99.90;;;;;;6152632;23;20404;-80
2023/01/20 01:13:38;;;;;;;9.33;7.30;;;-1.20;99.90;;;;;;6154173;23;20393;-80
2023/01/20 01:16:11;;;;;;;8.63;6.97;;;-1.20;99.90;;;;;;6153362;23;20420;-80
2023/01/20 01:18:39;;;;;;;10.90;7.30;;;-1.20;99.90;;;;;;6154363;23;20389;-80
2023/01/20 01:21:08;;;;;;;9.50;7.30;;;-1.20;99.90;;;;;;6154266;23;20780;-80
2023/01/20 01:23:36;;;;;;;9.57;7.50;;;-1.20;99.90;;;;;;6153219;23;20415;-79
2023/01/20 01:26:05;;;;;;;10.23;7.10;;;-1.20;99.90;;;;;;6154337;23;20875;-80
2023/01/20 01:28:35;;;;;;;13.63;7.27;;;-1.30;99.90;;;;;;6153967;23;20568;-79
2023/01/20 01:31:03;;;;;;;9.13;6.77;;;-1.30;99.90;;;;;;6153483;23;20445;-80
2023/01/20 01:33:32;;;;;;;9.63;7.17;;;-1.30;99.90;;;;;;6154020;23;20778;-79
2023/01/20 01:36:02;;;;;;;9.17;6.83;;;-1.30;99.90;;;;;;6156214;23;20401;-79
2023/01/20 01:38:30;;;;;;;11.00;7.43;;;-1.30;99.90;;;;;;6155566;23;20437;-80
2023/01/20 01:40:59;;;;;;;9.23;6.83;;;-1.30;99.90;;;;;;6156261;23;20737;-80
2023/01/20 01:43:30;;;;;;;10.60;7.10;;;-1.30;99.90;;;;;;6155195;23;20900;-80
2023/01/20 01:45:59;;;;;;;9.80;7.07;;;-1.40;99.90;;;;;;6155932;23;20425;-79
2023/01/20 01:48:31;;;;;;;9.80;6.43;;;-1.40;99.90;;;;;;6156321;23;20409;-80
2023/01/20 01:51:03;;;;;;;10.00;6.60;;;-1.40;99.90;;;;;;6155367;23;20450;-80
2023/01/20 01:53:39;;;;;;;10.70;6.97;;;-1.40;99.90;;;;;;6155507;23;20398;-80
2023/01/20 01:56:08;;;;;;;9.07;6.27;;;-1.50;99.90;;;;;;6156013;23;20392;-80
2023/01/20 01:58:41;;;;;;;9.73;6.57;;;-1.60;99.90;;;;;;6155210;23;20452;-80
2023/01/20 02:01:11;;;;;;;10.60;7.20;;;-1.60;99.90;;;;;;6155753;23;20525;-80
2023/01/20 02:03:49;;;;;;;10.70;7.47;;;-1.70;99.90;;;;;;6155303;23;20393;-80
2023/01/20 02:06:19;;;;;;;10.83;6.93;;;-1.70;99.90;;;;;;6154309;23;20391;-80
2023/01/20 02:08:48;;;;;;;11.70;7.07;;;-1.80;99.90;;;;;;6155962;23;20437;-80
2023/01/20 02:11:16;;;;;;;10.03;6.97;;;-1.80;99.90;;;;;;6155137;23;20891;-80
2023/01/20 02:13:44;;;;;;;9.63;6.57;;;-1.90;99.90;;;;;;6155382;23;20775;-80
2023/01/20 02:16:22;;;;;;;11.23;7.00;;;-1.90;99.90;;;;;;6156026;23;20499;-80
2023/01/20 02:19:04;;;;;;;10.43;7.27;;;-1.90;99.90;;;;;;6155345;23;20479;-81
2023/01/20 02:22:03;;;;;;;9.33;6.93;;;-2.00;99.90;;;;;;6155636;23;20441;-80
2023/01/20 02:25:00;;;;;;;10.50;6.40;;;-2.00;99.90;;;;;;6155704;23;20849;-80
2023/01/20 02:27:41;;;;;;;8.87;6.23;;;-2.10;99.90;;;;;;6155563;23;20393;-80
2023/01/20 02:30:34;;;;;;;8.93;6.30;;;-2.00;99.90;;;;;;6155865;23;20401;-80
2023/01/20 02:33:10;;;;;;;9.13;6.23;;;-2.10;99.90;;;;;;6155767;23;20628;-80
2023/01/20 02:35:44;;;;;;;9.07;6.10;;;-2.10;99.90;;;;;;6155600;23;20399;-79
2023/01/20 02:38:21;;;;;;;10.37;6.43;;;-2.10;99.90;;;;;;6155662;23;20921;-79
2023/01/20 02:40:55;;;;;;;9.17;6.30;;;-2.20;99.90;;;;;;6155941;23;20464;-81
2023/01/20 02:43:32;;;;;;;9.60;6.10;;;-2.20;99.90;;;;;;6155199;23;20499;-80
2023/01/20 02:46:04;;;;;;;11.23;6.40;;;-2.20;99.90;;;;;;6157119;23;20386;-79
2023/01/20 02:48:38;;;;;;;8.13;5.90;;;-2.20;99.90;;;;;;6155776;23;20472;-82
2023/01/20 02:51:12;;;;;;;9.07;6.60;;;-2.20;99.90;;;;;;6156283;23;20398;-81
2023/01/20 02:53:44;;;;;;;7.77;6.23;;;-2.20;99.90;;;;;;6155612;23;20414;-81
2023/01/20 02:56:13;;;;;;;9.13;6.00;;;-2.20;99.90;;;;;;6159799;23;20401;-81
2023/01/20 02:58:47;;;;;;;7.77;5.83;;;-2.20;99.90;;;;;;6158555;23;20445;-81
2023/01/20 03:01:21;;;;;;;9.07;6.43;;;-2.20;99.90;;;;;;6155917;23;20393;-81
2023/01/20 03:03:54;;;;;;;10.20;6.33;;;-2.20;99.90;;;;;;6155554;23;20408;-81
2023/01/20 03:06:30;;;;;;;9.83;6.43;;;-2.20;99.90;;;;;;6155799;23;20425;-81
2023/01/20 03:09:00;;;;;;;8.50;6.17;;;-2.20;99.90;;;;;;6155251;23;20421;-81
2023/01/20 03:11:35;;;;;;;8.57;6.40;;;-2.20;99.90;;;;;;6158375;23;20417;-81
2023/01/20 03:14:06;;;;;;;8.10;6.17;;;-2.30;99.90;;;;;;6155284;23;20483;-81
2023/01/20 03:16:34;;;;;;;8.80;6.07;;;-2.30;99.90;;;;;;6155260;23;20429;-80
2023/01/20 03:19:04;;;;;;;10.63;6.00;;;-2.30;99.90;;;;;;6154490;23;20533;-80
2023/01/20 03:21:33;;;;;;;8.80;6.40;;;-2.30;99.90;;;;;;6155055;23;20504;-81
2023/01/20 03:24:04;;;;;;;8.30;6.13;;;-2.30;99.90;;;;;;6154878;23;20467;-80
2023/01/20 03:26:33;;;;;;;8.50;6.27;;;-2.30;99.90;;;;;;6154606;23;20563;-81
2023/01/20 03:29:05;;;;;;;10.20;6.03;;;-2.30;99.90;;;;;;6154854;23;20417;-80
2023/01/20 03:31:37;;;;;;;10.13;6.47;;;-2.30;99.90;;;;;;6154772;23;20444;-80
2023/01/20 03:34:11;;;;;;;7.57;5.93;;;-2.20;99.90;;;;;;6154892;23;20390;-80
2023/01/20 03:36:42;;;;;;;10.00;6.60;;;-2.20;99.90;;;;;;6154904;23;20419;-82
2023/01/20 03:39:10;;;;;;;9.13;6.40;;;-2.20;99.90;;;;;;6154090;23;20449;-81
2023/01/20 03:41:49;;;;;;;9.70;6.17;;;-2.10;99.90;;;;;;6154800;23;20909;-82
2023/01/20 03:44:25;;;;;;;9.13;6.30;;;-2.20;99.90;;;;;;6154904;23;20736;-81
2023/01/20 03:47:01;;;;;;;10.23;6.20;;;-2.10;99.90;;;;;;6154880;23;20403;-80
2023/01/20 03:49:38;;;;;;;9.10;5.70;;;-2.10;99.90;;;;;;6154613;23;20386;-81
2023/01/20 03:52:14;;;;;;;8.37;6.20;;;-2.10;99.90;;;;;;6154785;23;20401;-82
2023/01/20 03:54:48;;;;;;;10.83;6.40;;;-2.10;99.90;;;;;;6153556;23;20386;-81
2023/01/20 03:57:21;;;;;;;8.57;6.40;;;-2.00;99.90;;;;;;6152911;23;20426;-81
2023/01/20 03:59:51;;;;;;;11.57;6.27;;;-2.00;99.90;;;;;;6154561;23;20527;-81
2023/01/20 04:02:21;;;;;;;9.93;6.07;;;-2.00;99.90;;;;;;6154534;23;20400;-82
2023/01/20 04:04:53;;;;;;;9.20;6.10;;;-2.00;99.90;;;;;;6154975;23;20397;-81
2023/01/20 04:07:26;;;;;;;9.40;6.20;;;-2.00;99.90;;;;;;6154170;23;20417;-81
2023/01/20 04:09:58;;;;;;;12.73;6.60;;;-2.00;99.90;;;;;;6154870;23;20453;-81
2023/01/20 04:12:26;;;;;;;8.83;6.43;;;-2.00;99.90;;;;;;6154316;23;20406;-81
2023/01/20 04:14:54;;;;;;;9.70;6.40;;;-1.90;99.90;;;;;;6154490;23;20869;-81
2023/01/20 04:17:27;;;;;;;9.50;6.50;;;-1.90;99.90;;;;;;6153871;23;20416;-81
2023/01/20 04:20:00;;;;;;;8.60;6.47;;;-1.90;99.90;;;;;;6154411;23;20455;-82
2023/01/20 04:22:34;;;;;;;8.60;6.53;;;-1.90;99.90;;;;;;6154384;23;20393;-80
2023/01/20 04:25:11;;;;;;;11.70;6.67;;;-1.90;99.90;;;;;;6154523;23;20422;-81
2023/01/20 04:27:41;;;;;;;9.13;6.90;;;-1.90;99.90;;;;;;6154784;23;20406;-81
2023/01/20 04:30:10;;;;;;;8.90;6.20;;;-2.00;99.90;;;;;;6154659;23;20401;-81
2023/01/20 04:32:38;;;;;;;10.20;7.00;;;-2.00;99.90;;;;;;6154365;23;20416;-81
2023/01/20 04:35:11;;;;;;;9.77;6.47;;;-2.00;99.90;;;;;;6153812;23;21018;-82
2023/01/20 04:37:39;;;;;;;9.60;6.90;;;-2.00;99.90;;;;;;6154372;23;20900;-81
2023/01/20 04:40:09;;;;;;;11.10;7.00;;;-2.00;99.90;;;;;;6154068;23;20449;-80
2023/01/20 04:42:38;;;;;;;9.50;6.83;;;-2.00;99.90;;;;;;6153798;23;20445;-81
2023/01/20 04:45:06;;;;;;;10.40;6.87;;;-2.00;99.90;;;;;;6154157;23;20512;-81
2023/01/20 04:47:34;;;;;;;8.83;6.87;;;-2.00;99.90;;;;;;6154131;23;20464;-81
2023/01/20 04:50:03;;;;;;;10.30;6.87;;;-2.00;99.90;;;;;;6154474;23;20405;-81
2023/01/20 04:52:34;;;;;;;10.13;6.63;;;-1.90;99.90;;;;;;6153964;23;20413;-81
2023/01/20 04:55:01;;;;;;;13.37;6.77;;;-1.90;99.90;;;;;;6154291;23;20408;-81
2023/01/20 04:57:30;;;;;;;11.63;7.73;;;-1.90;99.90;;;;;;6153724;23;20740;-81
2023/01/20 04:59:58;;;;;;;13.00;7.37;;;-1.90;99.90;;;;;;6154191;23;20961;-81
2023/01/20 05:02:26;;;;;;;11.67;7.33;;;-1.90;99.90;;;;;;6154049;23;20403;-80
2023/01/20 05:04:54;;;;;;;9.23;6.83;;;-1.90;99.90;;;;;;6154264;23;20409;-80
2023/01/20 05:07:22;;;;;;;9.90;7.33;;;-1.90;99.90;;;;;;6154768;23;20417;-79
2023/01/20 05:09:52;;;;;;;8.77;6.50;;;-1.90;99.90;;;;;;6154159;23;20429;-80
2023/01/20 05:12:20;;;;;;;11.97;7.07;;;-1.90;99.90;;;;;;6153833;23;20496;-80
2023/01/20 05:14:50;;;;;;;10.57;6.90;;;-1.90;99.90;;;;;;6153944;23;20418;-80
2023/01/20 05:17:18;;;;;;;11.20;7.17;;;-1.90;99.90;;;;;;6154133;23;20508;-80
2023/01/20 05:19:46;;;;;;;11.57;6.87;;;-1.90;99.90;;;;;;6154300;23;20527;-80
2023/01/20 05:22:14;;;;;;;10.40;7.40;;;-1.80;99.90;;;;;;6153753;23;20412;-80
2023/01/20 05:24:42;;;;;;;9.87;7.03;;;-1.90;99.90;;;;;;6154582;23;20721;-80
2023/01/20 05:27:12;;;;;;;11.07;7.40;;;-2.00;99.90;;;;;;6154187;23;20416;-81
2023/01/20 05:29:40;;;;;;;10.40;7.20;;;-2.10;99.90;;;;;;6154459;23;20412;-80
2023/01/20 05:32:08;;;;;;;10.00;7.17;;;-2.10;99.90;;;;;;6153540;23;20420;-80
2023/01/20 05:34:36;;;;;;;9.10;7.00;;;-2.00;99.90;;;;;;6153980;23;20500;-80
2023/01/20 05:37:04;;;;;;;9.23;6.57;;;-2.10;99.90;;;;;;6154422;23;20492;-80
2023/01/20 05:39:35;;;;;;;10.07;6.93;;;-2.00;99.90;;;;;;6152895;23;20476;-80
2023/01/20 05:42:04;;;;;;;12.60;7.27;;;-2.10;99.90;;;;;;6153710;23;20390;-81
2023/01/20 05:44:34;;;;;;;13.73;7.50;;;-2.10;99.90;;;;;;6154341;23;20427;-80
2023/01/20 05:47:03;;;;;;;10.97;7.47;;;-2.10;99.90;;;;;;6155602;23;20612;-82
2023/01/20 05:49:31;;;;;;;11.70;7.53;;;-2.10;99.90;;;;;;6155357;23;20501;-80
2023/01/20 05:51:59;;;;;;;9.87;7.33;;;-2.10;99.90;;;;;;6156732;23;20413;-81
2023/01/20 05:54:27;;;;;;;11.33;7.67;;;-2.10;99.90;;;;;;6157395;23;20408;-82
2023/01/20 05:56:55;;;;;;;10.90;7.50;;;-2.10;99.90;;;;;;6155909;23;20426;-80
2023/01/20 05:59:23;;;;;;;12.47;7.80;;;-2.10;99.90;;;;;;6155366;23;20433;-80
2023/01/20 06:02:08;;;;;;;10.60;7.80;;;-2.20;99.90;;;;;;6126505;23;20416;-81
2023/01/20 06:04:37;;;;;;;13.53;8.30;;;-2.20;99.90;;;;;;6161254;23;20402;-80
2023/01/20 06:07:05;;;;;;;11.53;8.43;;;-2.20;99.90;;;;;;6159647;23;20862;-82
2023/01/20 06:09:33;;;;;;;11.67;7.70;;;-2.20;99.90;;;;;;6159024;23;20435;-80
2023/01/20 06:12:01;;;;;;;10.70;7.40;;;-2.20;99.90;;;;;;6156619;23;20420;-81
2023/01/20 06:14:29;;;;;;;12.03;8.23;;;-2.10;99.90;;;;;;6155443;23;20424;-80
2023/01/20 06:16:57;;;;;;;12.93;8.73;;;-2.10;99.90;;;;;;6155316;23;20405;-80
2023/01/20 06:19:26;;;;;;;11.77;8.27;;;-2.10;99.90;;;;;;6155099;23;20445;-81
2023/01/20 06:21:54;;;;;;;12.97;9.00;;;-2.10;99.90;;;;;;6156761;23;20423;-81
2023/01/20 06:24:22;;;;;;;10.93;8.17;;;-2.10;99.90;;;;;;6156364;23;20417;-82
2023/01/20 06:26:51;;;;;;;12.37;8.60;;;-2.10;99.90;;;;;;6156080;23;20498;-81
2023/01/20 06:29:19;;;;;;;11.13;8.57;;;-2.10;99.90;;;;;;6156174;23;20407;-81
2023/01/20 06:31:47;;;;;;;11.50;8.10;;;-2.10;99.90;;;;;;6155380;23;20496;-82
2023/01/20 06:34:15;;;;;;;11.03;8.43;;;-2.10;99.90;;;;;;6154087;23;20905;-81
2023/01/20 06:36:45;;;;;;;11.83;8.83;;;-2.10;99.90;;;;;;6156050;23;20395;-81
2023/01/20 06:39:13;;;;;;;12.07;8.93;;;-2.10;99.90;;;;;;6155706;23;20658;-81
2023/01/20 06:41:41;;;;;;;12.07;8.80;;;-2.10;99.90;;;;;;6164037;23;20409;-81
2023/01/20 06:44:09;;;;;;;11.90;9.40;;;-2.20;99.90;;;;;;6162091;23;20423;-81
2023/01/20 06:46:37;;;;;;;13.60;9.10;;;-2.20;99.90;;;;;;6159309;23;20416;-81
2023/01/20 06:49:05;;;;;;;11.10;8.70;;;-2.20;99.90;;;;;;6156534;23;20516;-81
2023/01/20 06:51:33;;;;;;;14.40;9.80;;;-2.20;99.90;;;;;;6156182;23;20500;-81
2023/01/20 06:54:03;;;;;;;12.37;9.40;;;-2.20;99.90;;;;;;6157233;23;20477;-81
2023/01/20 06:56:31;;;;;;;15.83;9.60;;;-2.20;99.90;;;;;;6157261;23;20890;-82
2023/01/20 06:58:59;;;;;;;14.63;9.17;;;-2.20;99.90;;;;;;6156302;23;20423;-82
2023/01/20 07:01:29;;;;;;;12.97;9.90;;;-2.20;99.90;;;;;;6157413;23;20447;-80
2023/01/20 07:03:57;;;;;;;17.80;13.37;;;-2.10;99.90;;;;;;6158624;23;20424;-80
2023/01/20 07:06:29;;;;;;;27.17;21.73;;;-2.20;99.90;;;;;;6159082;23;20416;-81
2023/01/20 07:08:58;;;;;;;25.23;21.33;;;-2.10;99.90;;;;;;6157987;23;20775;-81
2023/01/20 07:11:29;;;;;;;40.37;31.93;;;-2.00;99.90;;;;;;6157850;23;20433;-81
2023/01/20 07:13:57;;;;;;;30.97;22.63;;;-2.10;99.90;;;;;;6156577;23;20397;-81
2023/01/20 07:16:26;;;;;;;24.47;19.00;;;-2.00;99.90;;;;;;6156236;23;20414;-81
2023/01/20 07:18:55;;;;;;;36.67;27.43;;;-2.00;99.90;;;;;;6154824;23;20781;-81
2023/01/20 07:21:24;;;;;;;110.13;61.33;;;-2.00;99.90;;;;;;6156128;23;20492;-81
2023/01/20 07:23:53;;;;;;;51.00;32.63;;;-2.00;99.90;;;;;;6157072;23;20438;-81
2023/01/20 07:26:25;;;;;;;41.07;36.57;;;-1.90;99.90;;;;;;6156316;23;20724;-80
2023/01/20 07:28:55;;;;;;;34.23;30.50;;;-1.70;99.90;;;;;;6158363;23;20424;-80
2023/01/20 07:31:25;;;;;;;22.50;18.13;;;-1.80;99.90;;;;;;6159657;23;20436;-80
2023/01/20 07:33:56;;;;;;;27.53;23.73;;;-1.70;99.90;;;;;;6160842;23;20441;-79
2023/01/20 07:36:24;;;;;;;27.33;22.40;;;-1.70;99.90;;;;;;6160097;23;20393;-80
2023/01/20 07:38:54;;;;;;;31.47;25.13;;;-1.70;99.90;;;;;;6160878;23;20413;-79
2023/01/20 07:41:22;;;;;;;28.50;23.73;;;-1.70;99.90;;;;;;6159788;23;20443;-80
2023/01/20 07:43:52;;;;;;;24.73;19.07;;;-1.60;99.90;;;;;;6158352;23;20417;-79
2023/01/20 07:46:22;;;;;;;18.17;14.60;;;-1.60;99.90;;;;;;6158178;23;20415;-80
2023/01/20 07:48:51;;;;;;;16.57;12.43;;;-1.50;99.90;;;;;;6159232;23;20895;-80
2023/01/20 07:51:19;;;;;;;15.30;11.40;;;-1.50;99.90;;;;;;6158770;23;20443;-79
2023/01/20 07:53:50;;;;;;;16.10;12.73;;;-1.40;99.90;;;;;;6157034;23;20427;-79
2023/01/20 07:56:20;;;;;;;17.17;14.00;;;-1.40;99.90;;;;;;6157087;23;20452;-79
2023/01/20 07:58:49;;;;;;;15.43;11.87;;;-1.40;99.90;;;;;;6156724;23;20427;-79
2023/01/20 08:01:19;;;;;;;13.77;11.60;;;-1.30;99.90;;;;;;6155482;23;20452;-77
2023/01/20 08:03:49;;;;;;;15.13;11.20;;;-1.30;99.90;;;;;;6155737;23;20412;-81
2023/01/20 08:06:19;;;;;;;14.80;10.77;;;-1.20;99.90;;;;;;6155691;23;20433;-80
2023/01/20 08:08:48;;;;;;;14.23;11.27;;;-1.20;99.90;;;;;;6157241;23;20518;-79
2023/01/20 08:11:18;;;;;;;13.93;11.50;;;-1.10;99.90;;;;;;6155671;23;20496;-81
2023/01/20 08:13:46;;;;;;;16.93;12.57;;;-1.00;99.90;;;;;;6155572;23;20445;-79
2023/01/20 08:16:17;;;;;;;17.03;12.20;;;-1.10;99.90;;;;;;6155895;23;20913;-79
2023/01/20 08:18:46;;;;;;;16.60;12.63;;;-1.00;99.90;;;;;;6155824;23;20834;-79
2023/01/20 08:21:21;;;;;;;18.63;13.93;;;-1.00;99.90;;;;;;6155911;23;20554;-79
2023/01/20 08:23:49;;;;;;;25.63;20.13;;;-0.90;99.90;;;;;;6154980;23;20437;-80
2023/01/20 08:26:19;;;;;;;45.53;33.60;;;-1.00;99.90;;;;;;6155820;23;20444;-80
2023/01/20 08:28:48;;;;;;;29.70;21.63;;;-0.90;99.90;;;;;;6155350;23;20413;-80
2023/01/20 08:31:18;;;;;;;24.03;18.60;;;-0.90;99.90;;;;;;6154739;23;20413;-78
2023/01/20 08:33:48;;;;;;;19.03;13.67;;;-0.90;99.90;;;;;;6154680;23;20815;-79
2023/01/20 08:36:21;;;;;;;13.40;11.07;;;1.30;99.90;;;;;;6155432;23;20397;-79
2023/01/20 08:38:51;;;;;;;16.00;11.60;;;2.20;99.90;;;;;;6154315;23;20420;-79
2023/01/20 08:41:21;;;;;;;13.70;11.57;;;1.30;99.90;;;;;;6155193;23;20448;-80
2023/01/20 08:43:50;;;;;;;13.33;11.90;;;0.80;99.90;;;;;;6154222;23;20185;-78
2023/01/20 08:46:20;;;;;;;13.00;10.87;;;0.40;99.90;;;;;;6154610;23;20240;-78
2023/01/20 08:48:49;;;;;;;16.33;12.37;;;0.30;99.90;;;;;;6155401;23;20268;-78
2023/01/20 08:51:20;;;;;;;13.63;11.40;;;0.20;99.90;;;;;;6154936;23;20177;-80
2023/01/20 08:53:49;;;;;;;18.37;16.20;;;0.20;99.90;;;;;;6154444;23;20614;-80
2023/01/20 08:56:18;;;;;;;22.77;17.60;;;0.30;99.90;;;;;;6154732;23;20186;-79
2023/01/20 08:58:47;;;;;;;26.23;20.87;;;0.20;99.90;;;;;;6154266;23;20582;-80
2023/01/20 09:01:17;;;;;;;15.23;12.43;;;0.20;99.90;;;;;;6153640;23;20413;-79
2023/01/20 09:03:46;;;;;;;14.17;11.93;;;0.10;99.90;;;;;;6153813;23;20185;-79
2023/01/20 09:06:38;;;;;;;15.60;12.63;;;-0.10;99.90;;;;;;6154922;23;20201;-79
2023/01/20 09:09:06;;;;;;;14.90;12.17;;;-0.10;99.90;;;;;;6154837;23;20201;-79
2023/01/20 09:11:35;;;;;;;19.30;13.47;;;0.00;99.90;;;;;;6154921;23;20499;-79
2023/01/20 09:14:03;;;;;;;16.37;12.87;;;0.10;99.90;;;;;;6154460;23;20185;-78
2023/01/20 09:16:31;;;;;;;16.67;12.40;;;0.00;99.90;;;;;;6154317;23;20665;-79
2023/01/20 09:19:01;;;;;;;21.83;16.57;;;0.00;99.90;;;;;;6155214;23;20240;-79
2023/01/20 09:21:30;;;;;;;80.50;49.53;;;0.00;99.90;;;;;;6155432;23;20248;-79
2023/01/20 09:24:00;;;;;;;24.90;17.43;;;-0.10;99.90;;;;;;6154536;23;20190;-77
2023/01/20 09:26:37;;;;;;;17.90;13.93;;;0.00;99.90;;;;;;6154483;23;20417;-78
2023/01/20 09:29:11;;;;;;;14.07;11.53;;;0.00;99.90;;;;;;6154898;23;20165;-78
2023/01/20 09:31:42;;;;;;;13.93;11.30;;;0.20;99.90;;;;;;6154086;23;20460;-78
2023/01/20 09:34:13;;;;;;;13.90;11.83;;;0.20;99.90;;;;;;6152419;23;20917;-77
2023/01/20 09:36:45;;;;;;;13.60;11.70;;;0.20;99.90;;;;;;6152123;23;20182;-78
2023/01/20 09:45:23;;;;;;;14.47;11.87;;;0.30;99.90;;;;;;6153557;23;20394;-79
2023/01/20 09:47:59;;;;;;;14.93;11.60;;;0.30;99.90;;;;;;6152696;23;20477;-79
2023/01/20 09:53:48;;;;;;;12.30;10.77;;;0.40;99.90;;;;;;6153031;23;20165;-80
2023/01/20 09:56:20;;;;;;;12.27;10.37;;;0.60;99.90;;;;;;6155047;23;20170;-81
2023/01/20 09:58:56;;;;;;;12.00;10.13;;;0.80;99.90;;;;;;6154984;23;20462;-80
2023/01/20 10:01:30;;;;;;;11.77;9.83;;;1.10;99.90;;;;;;6156449;23;20190;-80
2023/01/20 10:04:06;;;;;;;12.43;10.13;;;1.20;99.90;;;;;;6157714;23;20208;-82
2023/01/20 10:06:39;;;;;;;12.67;10.00;;;1.30;99.90;;;;;;6157092;23;20668;-80
2023/01/20 10:09:20;;;;;;;10.30;8.70;;;1.60;99.90;;;;;;6157540;23;20305;-79
2023/01/20 10:11:52;;;;;;;13.63;9.47;;;1.70;99.90;;;;;;6160170;23;20197;-82
2023/01/20 10:14:28;;;;;;;13.00;9.60;;;1.80;99.90;;;;;;6159132;23;20590;-81
2023/01/20 10:17:04;;;;;;;11.20;9.77;;;1.60;99.90;;;;;;6159417;23;20169;-80
2023/01/20 10:19:38;;;;;;;14.00;11.33;;;1.40;99.90;;;;;;6161559;23;20641;-81
2023/01/20 10:22:13;;;;;;;12.80;10.03;;;1.60;99.90;;;;;;6159159;23;20225;-82
2023/01/20 10:24:48;;;;;;;12.73;10.80;;;1.40;99.90;;;;;;6157645;23;20170;-82
2023/01/20 10:27:18;;;;;;;13.70;10.97;;;1.30;99.90;;;;;;6157768;23;20176;-82
2023/01/20 10:29:53;;;;;;;13.67;10.70;;;1.40;99.90;;;;;;6157349;23;20519;-82
2023/01/20 10:32:29;;;;;;;12.30;10.40;;;1.40;99.90;;;;;;6155848;23;20166;-83
2023/01/20 10:35:02;;;;;;;15.97;11.27;;;1.30;99.90;;;;;;6156345;23;20201;-81
2023/01/20 10:37:32;;;;;;;13.20;10.97;;;1.20;99.90;;;;;;6156520;23;20650;-82
2023/01/20 10:40:07;;;;;;;13.83;10.77;;;1.10;99.90;;;;;;6154868;23;20185;-81
2023/01/20 10:42:37;;;;;;;14.83;12.77;;;1.10;99.90;;;;;;6155265;23;20268;-81
2023/01/20 10:45:15;;;;;;;14.97;11.30;;;1.10;99.90;;;;;;6154858;23;20212;-81
2023/01/20 10:47:50;;;;;;;15.30;11.60;;;1.10;99.90;;;;;;6155320;23;20184;-81
2023/01/20 10:50:47;;;;;;;13.83;11.50;;;1.10;99.90;;;;;;6155991;23;20245;-81
2023/01/20 10:53:34;;;;;;;15.53;11.87;;;1.50;99.90;;;;;;6155178;23;20263;-82
2023/01/20 10:56:14;;;;;;;13.67;10.93;;;1.40;99.90;;;;;;6155946;23;20523;-82
2023/01/20 10:58:46;;;;;;;12.33;10.83;;;1.50;99.90;;;;;;6155895;23;20565;-81
2023/01/20 11:01:17;;;;;;;11.93;9.77;;;1.80;99.90;;;;;;6155241;23;20181;-81
2023/01/20 11:03:48;;;;;;;14.03;10.43;;;1.90;99.90;;;;;;6155218;23;20185;-80
2023/01/20 11:06:20;;;;;;;13.93;10.40;;;1.50;99.90;;;;;;6154243;23;20256;-80
2023/01/20 11:08:49;;;;;;;13.37;9.83;;;1.50;99.90;;;;;;6155363;23;20260;-81
2023/01/20 11:11:21;;;;;;;13.20;10.07;;;1.70;99.90;;;;;;6155236;23;20638;-81
2023/01/20 11:13:51;;;;;;;12.77;10.10;;;1.70;99.90;;;;;;6153444;23;20452;-81
2023/01/20 11:16:23;;;;;;;17.07;12.67;;;1.60;99.90;;;;;;6155471;23;20166;-81
2023/01/20 11:18:57;;;;;;;22.53;16.70;;;1.70;99.90;;;;;;6155306;23;20212;-82
2023/01/20 11:21:29;;;;;;;13.50;10.47;;;1.80;99.90;;;;;;6155209;23;20240;-81
2023/01/20 11:23:59;;;;;;;10.93;9.13;;;1.80;99.90;;;;;;6155034;23;20181;-81
2023/01/20 11:26:31;;;;;;;12.57;9.27;;;1.60;99.90;;;;;;6155860;23;20195;-80
2023/01/20 11:29:02;;;;;;;12.33;9.73;;;1.50;99.90;;;;;;6155570;23;20178;-80
2023/01/20 11:31:38;;;;;;;13.77;10.27;;;1.20;99.90;;;;;;6155291;23;20188;-81
2023/01/20 11:34:21;;;;;;;12.52;10.65;;;1.20;99.90;;;;;;6154612;23;20400;-79
2023/01/20 11:36:50;;;;;;;12.97;10.37;;;1.10;99.90;;;;;;6155332;23;20180;-81
2023/01/20 11:39:27;;;;;;;14.20;11.13;;;1.10;99.90;;;;;;6160254;23;20186;-80
2023/01/20 11:42:15;;;;;;;14.10;11.60;;;1.10;99.90;;;;;;6153467;23;20193;-81
2023/01/20 11:44:45;;;;;;;13.13;10.80;;;1.10;99.90;;;;;;6156361;23;20166;-79
2023/01/20 11:47:22;;;;;;;14.40;10.57;;;1.10;99.90;;;;;;6155763;23;20220;-79
2023/01/20 11:50:22;;;;;;;13.52;11.52;;;1.00;99.90;;;;;;6155156;23;20421;-80
2023/01/20 11:52:51;;;;;;;14.38;11.27;;;1.10;99.90;;;;;;6151189;23;20403;-79
2023/01/20 11:55:22;;;;;;;13.97;11.00;;;1.10;99.90;;;;;;6153253;23;20268;-79
2023/01/20 11:57:53;;;;;;;12.30;10.60;;;1.10;99.90;;;;;;6153865;23;20196;-79
2023/01/20 12:00:38;;;;;;;14.50;11.73;;;1.10;99.90;;;;;;6154538;23;20166;-80
2023/01/20 12:03:34;;;;;;;14.37;11.80;;;1.20;99.90;;;;;;6154540;23;20205;-79
2023/01/20 12:06:13;;;;;;;15.10;13.17;;;1.20;99.90;;;;;;6156474;23;20166;-81
2023/01/20 12:08:49;;;;;;;16.63;14.53;;;1.10;99.90;;;;;;6168404;23;20201;-80
2023/01/20 12:11:24;;;;;;;17.53;13.93;;;1.00;99.90;;;;;;6158315;23;20180;-79
2023/01/20 12:14:22;;;;;;;16.85;14.55;;;0.80;99.90;;;;;;6157996;23;20374;-80
2023/01/20 12:17:00;;;;;;;16.70;14.23;;;1.00;99.90;;;;;;6157932;23;20496;-80
2023/01/20 12:19:37;;;;;;;29.90;24.83;;;1.00;99.90;;;;;;6156668;23;20166;-80
2023/01/20 12:22:22;;;;;;;20.90;17.27;;;0.80;99.90;;;;;;6155835;23;20197;-78
2023/01/20 12:25:10;;;;;;;26.13;20.17;;;1.30;99.90;;;;;;6154469;23;20185;-81
2023/01/20 12:27:51;;;;;;;17.60;14.10;;;1.00;99.90;;;;;;6155610;23;20177;-80
2023/01/20 12:30:42;;;;;;;18.60;15.83;;;1.00;99.90;;;;;;6158389;23;20170;-80
2023/01/20 12:33:20;;;;;;;21.20;15.97;;;1.00;99.90;;;;;;6155917;23;20197;-79
2023/01/20 12:36:24;;;;;;;18.87;15.17;;;1.00;99.90;;;;;;6155137;23;20182;-80
2023/01/20 12:39:26;;;;;;;23.83;18.17;;;1.00;99.90;;;;;;6155830;23;20192;-80
2023/01/20 12:42:28;;;;;;;23.43;18.53;;;0.90;99.90;;;;;;6154073;23;20629;-80
2023/01/20 12:44:59;;;;;;;19.93;15.77;;;0.70;99.90;;;;;;6105621;23;20192;-80
2023/01/20 12:47:42;;;;;;;30.57;27.37;;;0.50;99.90;;;;;;6152741;23;20213;-79
2023/01/20 12:50:23;;;;;;;18.87;15.60;;;0.40;99.90;;;;;;6152382;23;20577;-80
2023/01/20 12:53:10;;;;;;;17.50;15.60;;;0.60;99.90;;;;;;6152628;23;20173;-79
2023/01/20 12:55:48;;;;;;;18.50;15.30;;;0.60;99.90;;;;;;6153423;23;20198;-79
2023/01/20 12:58:28;;;;;;;16.00;13.70;;;1.10;99.90;;;;;;6154556;23;20223;-81
2023/01/20 13:01:12;;;;;;;14.23;12.23;;;0.50;99.90;;;;;;6154237;23;20645;-80
2023/01/20 13:04:05;;;;;;;15.17;12.57;;;0.50;99.90;;;;;;6153644;23;20194;-80
2023/01/20 13:06:55;;;;;;;14.70;13.10;;;0.60;99.90;;;;;;6154562;23;20244;-79
2023/01/20 13:09:33;;;;;;;20.20;18.03;;;0.50;99.90;;;;;;6153936;23;20201;-80
2023/01/20 13:12:13;;;;;;;18.90;16.90;;;0.40;99.90;;;;;;6153111;23;20165;-79
2023/01/20 13:14:45;;;;;;;19.10;15.97;;;0.50;99.90;;;;;;6154413;23;20215;-79